Latest Weather Observations for Kanagulk

IDV60801

Issued at 11:31 pm EDT Sunday 7 February 2016 (issued every 30 minutes, with the page automatically refreshed every 10 minutes)

About weather observations | Map of weather stations | Latest weather observations for VIC | Other Formats
Station Details ID: 079097 Name: KANAGULK Lat: -37.12 Lon: 141.80 Height: 188.8 m
Data from the previous 72 hours. | See also: Recent months at Kanagulk
Date/Time
EDT
Temp
°C
App
Temp
°C
Dew
Point
Rel
Hum
%
Delta-T
°C
Wind Press
QNH
hPa
Press
MSL
hPa
Rain
since 9 am
mm
Dir
 
Spd
km/h
Gust
km/h
Spd
kts
Gust
kts
07/11:30pm 17.7 13.8 14.4 81 1.9 SSE 28 39 15 21 1020.3 1019.6 0.0
07/11:00pm 18.6 15.0 14.1 75 2.6 S 26 37 14 20 1020.0 1019.3 0.0
07/10:30pm 19.7 16.1 13.2 66 3.7 S 24 35 13 19 1019.7 1019.0 0.0
07/10:00pm 20.8 17.2 13.0 61 4.5 S 24 33 13 18 1019.3 1018.6 0.0
07/09:30pm 21.9 17.2 13.3 58 5.0 S 30 41 16 22 1018.8 1018.1 0.0
07/09:00pm 23.2 19.8 13.7 55 5.6 S 24 35 13 19 1018.2 1017.6 0.0
07/08:30pm 24.3 20.8 13.5 51 6.4 S 24 35 13 19 1017.8 1017.2 0.0
07/08:00pm 25.9 22.3 14.1 48 7.0 S 26 37 14 20 1017.3 1016.7 0.0
07/07:30pm 27.7 22.7 14.0 43 8.2 SSE 33 43 18 23 1016.6 1016.0 0.0
07/07:00pm 30.0 25.7 13.3 36 10.0 S 28 37 15 20 1016.0 1015.3 0.0
07/06:30pm 31.2 26.4 13.0 33 10.9 S 30 39 16 21 1015.6 1014.9 0.0
07/06:00pm 33.2 30.4 8.6 22 13.9 SW 13 22 7 12 1015.4 1014.7 0.0
07/05:30pm 33.1 30.1 7.9 21 14.1 SSW 13 24 7 13 1015.4 1014.7 0.0
07/05:00pm 34.3 30.6 8.1 20 14.8 S 17 32 9 17 1015.5 1014.8 0.0
07/04:30pm 33.6 30.0 6.8 19 14.8 S 15 24 8 13 1015.6 1014.9 0.0
07/04:00pm 33.9 30.0 7.0 19 14.9 SW 17 32 9 17 1015.6 1014.9 0.0
07/03:30pm 33.8 31.4 7.0 19 14.8 WSW 9 24 5 13 1015.9 1015.2 0.0
07/03:00pm 32.8 28.9 6.9 20 14.2 SW 17 33 9 18 1016.2 1015.5 0.0
07/02:30pm 33.1 30.6 6.4 19 14.6 WSW 9 20 5 11 1016.3 1015.6 0.0
07/02:00pm 32.3 29.7 7.9 22 13.6 SSE 11 20 6 11 1016.5 1015.8 0.0
07/01:30pm 31.4 29.9 9.0 25 12.6 ESE 7 17 4 9 1016.8 1016.2 0.0
07/01:00pm 31.3 30.0 10.1 27 12.2 S 7 15 4 8 1016.9 1016.3 0.0
07/12:30pm 30.0 28.3 10.0 29 11.4 S 9 19 5 10 1017.3 1016.7 0.0
07/12:00pm 28.9 27.0 10.6 32 10.5 SSW 11 17 6 9 1017.6 1017.0 0.0
07/11:30am 28.6 27.3 11.2 34 10.0 SW 9 15 5 8 1017.6 1017.0 0.0
07/11:00am 27.5 26.6 10.7 35 9.6 SSE 6 11 3 6 1017.5 1016.9 0.0
07/10:30am 25.5 24.3 11.7 42 7.9 SSE 9 13 5 7 1017.6 1017.0 0.0
07/10:00am 24.0 22.8 11.7 46 7.0 SE 9 13 5 7 1017.7 1017.1 0.0
07/09:30am 22.2 20.1 12.5 54 5.6 SSE 15 19 8 10 1017.6 1017.0 0.0
07/09:00am 21.3 18.6 11.6 54 5.4 SSE 17 20 9 11 1017.6 1017.0 0.0
07/08:30am 20.4 18.0 11.3 56 5.1 S 15 20 8 11 1017.3 1016.7 0.0
07/08:00am 18.6 17.2 12.1 66 3.6 SSW 11 15 6 8 1016.9 1016.3 0.0
07/07:30am 15.8 16.2 11.2 74 2.5 CALM 0 0 0 0 1016.3 1015.6 0.0
07/07:00am 15.2 15.4 10.6 74 2.4 CALM 0 0 0 0 1016.0 1015.3 0.0
07/06:30am 15.7 16.0 10.9 73 2.6 CALM 0 0 0 0 1015.7 1015.0 0.0
07/06:00am 16.0 16.3 11.0 72 2.7 CALM 0 0 0 0 1015.3 1014.6 0.0
07/05:30am 15.9 16.2 10.9 72 2.7 CALM 0 0 0 0 1015.1 1014.4 0.0
07/05:00am 16.3 16.6 11.0 71 2.9 CALM 0 0 0 0 1014.9 1014.2 0.0
07/04:30am 15.9 14.9 10.2 69 3.0 S 6 7 3 4 1014.8 1014.1 0.0
07/04:00am 17.0 16.0 10.4 65 3.5 ENE 6 7 3 4 1015.0 1014.3 0.0
07/03:30am 17.8 16.8 10.4 62 4.0 SE 6 9 3 5 1015.1 1014.4 0.0
07/03:00am 17.5 16.0 10.4 63 3.8 SSE 9 11 5 6 1015.2 1014.5 0.0
07/02:30am 18.1 16.6 10.5 61 4.1 SSE 9 9 5 5 1015.2 1014.5 0.0
07/02:00am 18.1 16.6 10.5 61 4.1 SSE 9 9 5 5 1015.6 1014.9 0.0
07/01:30am 19.6 17.7 10.6 56 4.9 S 11 15 6 8 1015.9 1015.2 0.0
07/01:00am 20.2 18.0 10.9 55 5.1 SSE 13 17 7 9 1016.0 1015.3 0.0
07/12:30am 20.8 18.2 10.6 52 5.6 SSE 15 19 8 10 1016.0 1015.3 0.0
07/12:00am 21.3 18.9 10.2 49 6.1 S 13 15 7 8 1016.1 1015.4 0.0
 
Date/Time
EDT
Temp
°C
App
Temp
°C
Dew
Point
Rel
Hum
%
Delta-T
°C
Wind Press
QNH
hPa
Press
MSL
hPa
Rain
since 9 am
mm
Dir
 
Spd
km/h
Gust
km/h
Spd
kts
Gust
kts
06/11:30pm 22.0 19.6 9.9 46 6.6 S 13 17 7 9 1016.0 1015.3 0.0
06/11:00pm 22.9 19.3 10.0 44 7.1 SSE 19 24 10 13 1015.9 1015.2 0.0
06/10:30pm 23.5 20.0 10.2 43 7.4 SSE 19 24 10 13 1015.8 1015.1 0.0
06/10:00pm 24.5 21.9 10.8 42 7.7 SSE 15 24 8 13 1015.6 1014.9 0.0
06/09:30pm 25.5 21.8 9.3 36 8.9 S 19 26 10 14 1015.0 1014.3 0.0
06/09:00pm 26.4 21.7 9.3 34 9.5 SSE 24 33 13 18 1014.6 1013.9 0.0
06/08:30pm 27.6 22.6 9.4 32 10.2 S 26 39 14 21 1014.0 1013.3 0.0
06/08:15pm 28.8 23.0 9.5 30 10.8 SSE 30 41 16 22 1013.7 1013.0 0.0
06/08:00pm 31.0 30.0 7.5 23 12.9 WSW 2 22 1 12 1013.3 1012.6 0.0
06/07:30pm 32.7 31.6 5.3 18 14.7 CALM 0 6 0 3 1012.9 1012.3 0.0
06/07:00pm 32.9 31.5 5.5 18 14.7 SSE 2 11 1 6 1012.8 1012.2 0.0
06/06:30pm 33.1 30.0 5.6 18 14.8 SSW 11 20 6 11 1012.8 1012.2 0.0
06/06:00pm 32.9 30.7 5.5 18 14.7 WNW 6 13 3 7 1012.8 1012.2 0.0
06/05:30pm 33.6 32.3 6.0 18 15.0 SW 2 15 1 8 1013.0 1012.4 0.0
06/05:00pm 33.8 31.4 5.4 17 15.3 W 7 13 4 7 1013.3 1012.6 0.0
06/04:30pm 32.5 30.1 5.1 18 14.6 N 7 17 4 9 1013.5 1012.8 0.0
06/04:00pm 33.0 30.4 6.3 19 14.5 ESE 9 19 5 10 1013.8 1013.1 0.0
06/03:30pm 32.7 30.7 6.1 19 14.4 WSW 6 15 3 8 1014.2 1013.5 0.0
06/03:00pm 33.0 30.6 7.1 20 14.3 NW 9 19 5 10 1014.5 1013.8 0.0
06/02:30pm 31.5 29.1 7.2 22 13.3 NNE 9 19 5 10 1015.0 1014.3 0.0
06/02:00pm 30.8 30.1 8.5 25 12.4 NE 2 9 1 5 1015.4 1014.7 0.0
06/01:30pm 30.5 28.5 8.8 26 12.2 WNW 9 17 5 9 1015.9 1015.2 0.0
06/01:00pm 29.7 27.9 9.3 28 11.5 NNW 9 17 5 9 1016.3 1015.6 0.0
06/12:30pm 29.2 27.6 10.3 31 10.8 NNW 9 20 5 11 1016.6 1016.0 0.0
06/12:00pm 28.5 26.0 9.7 31 10.6 NNW 13 24 7 13 1016.9 1016.3 0.0
06/11:30am 27.6 24.1 10.3 34 9.8 N 19 30 10 16 1017.0 1016.4 0.0
06/11:00am 26.7 22.7 10.4 36 9.2 NNE 22 30 12 16 1017.1 1016.5 0.0
06/10:30am 25.7 21.3 10.3 38 8.6 NNE 24 32 13 17 1017.2 1016.6 0.0
06/10:00am 24.9 20.8 11.5 43 7.6 NNE 24 35 13 19 1017.3 1016.7 0.0
06/09:30am 23.1 19.0 11.5 48 6.6 NNE 24 35 13 19 1017.2 1016.6 0.0
06/09:00am 22.1 17.9 12.4 54 5.5 NE 26 32 14 17 1017.0 1016.4 0.0
06/08:30am 19.5 19.0 13.9 70 3.2 NE 9 13 5 7 1016.9 1016.3 0.0
06/08:00am 17.0 18.7 15.2 89 1.1 CALM 0 0 0 0 1016.6 1016.0 0.0
06/07:30am 14.0 15.0 13.2 95 0.4 CALM 0 0 0 0 1016.4 1015.7 0.0
06/07:00am 13.4 14.1 12.3 93 0.6 CALM 0 0 0 0 1015.9 1015.2 0.0
06/06:30am 13.7 14.5 12.4 92 0.7 CALM 0 0 0 0 1015.5 1014.8 0.0
06/06:00am 14.3 15.2 12.9 91 0.8 CALM 0 0 0 0 1015.3 1014.6 0.0
06/05:30am 14.4 15.3 12.8 90 0.9 CALM 0 4 0 2 1015.2 1014.5 0.0
06/05:00am 14.4 14.0 12.3 87 1.2 S 6 7 3 4 1015.0 1014.3 0.0
06/04:30am 15.1 14.8 12.8 86 1.3 SE 6 7 3 4 1015.1 1014.4 0.0
06/04:00am 14.7 13.3 12.2 85 1.4 SSE 11 13 6 7 1015.2 1014.5 0.0
06/03:30am 15.6 15.2 12.5 82 1.7 SSE 6 7 3 4 1015.5 1014.8 0.0
06/03:00am 16.1 15.6 12.5 79 2.0 SE 7 9 4 5 1015.9 1015.2 0.0
06/02:30am 17.1 16.6 12.8 76 2.4 SE 7 11 4 6 1016.0 1015.3 0.0
06/02:00am 17.3 15.7 12.8 75 2.5 SSE 13 17 7 9 1016.0 1015.3 0.0
06/01:30am 17.7 16.0 12.6 72 2.9 SSE 13 17 7 9 1016.1 1015.4 0.0
06/01:00am 18.3 16.3 12.7 70 3.2 SSE 15 19 8 10 1016.1 1015.4 0.0
06/12:30am 18.8 16.5 13.0 69 3.3 SSE 17 22 9 12 1016.3 1015.6 0.0
06/12:00am 19.0 16.6 12.7 67 3.6 SSE 17 20 9 11 1016.5 1015.8 0.0
 
Date/Time
EDT
Temp
°C
App
Temp
°C
Dew
Point
Rel
Hum
%
Delta-T
°C
Wind Press
QNH
hPa
Press
MSL
hPa
Rain
since 9 am
mm
Dir
 
Spd
km/h
Gust
km/h
Spd
kts
Gust
kts
05/11:30pm 19.5 17.2 13.0 66 3.7 SSE 17 22 9 12 1016.7 1016.1 0.0
05/11:00pm 20.0 16.8 13.0 64 4.0 SSE 22 30 12 16 1016.8 1016.2 0.0
05/10:30pm 20.4 17.2 13.1 63 4.2 SSE 22 33 12 18 1016.9 1016.3 0.0
05/10:00pm 21.2 17.2 13.1 60 4.7 SSE 26 35 14 19 1017.0 1016.4 0.0
05/09:30pm 22.2 18.4 13.5 57 5.1 SSE 26 35 14 19 1016.8 1016.2 0.0
05/09:00pm 23.1 18.8 13.3 54 5.7 SSE 28 39 15 21 1016.5 1015.8 0.0
05/08:30pm 24.8 21.2 13.0 47 6.9 SSE 24 35 13 19 1016.1 1015.4 0.0
05/08:00pm 28.1 24.6 8.9 30 10.6 SE 17 22 9 12 1015.6 1014.9 0.0
05/07:30pm 28.9 25.9 9.1 29 11.1 SE 15 20 8 11 1015.2 1014.5 0.0
05/07:00pm 29.8 26.8 9.3 28 11.5 SE 15 20 8 11 1015.1 1014.4 0.0
05/06:30pm 29.7 27.6 9.8 29 11.3 S 11 26 6 14 1015.1 1014.4 0.0
05/06:00pm 30.1 26.6 10.1 29 11.4 S 19 28 10 15 1015.3 1014.6 0.0
05/05:30pm 29.9 26.9 10.5 30 11.1 SSE 17 26 9 14 1015.5 1014.8 0.0
05/05:00pm 30.2 27.8 10.2 29 11.4 SSW 13 26 7 14 1015.7 1015.0 0.0
05/04:30pm 29.8 28.1 9.9 29 11.3 SSE 9 19 5 10 1015.9 1015.2 0.0
05/04:00pm 29.8 28.3 9.3 28 11.5 ENE 7 15 4 8 1016.3 1015.6 0.0
05/03:30pm 29.0 27.3 9.7 30 10.9 SSE 9 22 5 12 1016.8 1016.2 0.0
05/03:00pm 28.4 26.3 9.6 31 10.5 E 11 19 6 10 1017.2 1016.6 0.0
05/02:30pm 27.4 26.0 9.7 33 9.9 SE 7 15 4 8 1017.7 1017.1 0.0
05/02:00pm 27.2 26.1 10.8 36 9.3 SW 7 13 4 7 1017.9 1017.3 0.0
05/01:30pm 26.2 25.2 10.4 37 8.9 NE 6 13 3 7 1018.4 1017.8 0.0
05/01:00pm 25.9 25.1 10.9 39 8.5 N 6 11 3 6 1018.8 1018.1 0.0
05/12:30pm 25.7 24.9 11.1 40 8.3 E 6 17 3 9 1019.1 1018.4 0.0
05/12:00pm 24.3 22.4 10.6 42 7.7 ENE 11 22 6 12 1019.5 1018.8 0.0
05/11:30am 23.8 22.1 11.2 45 7.1 ENE 11 17 6 9 1019.8 1019.1 0.0
05/11:00am 22.8 20.7 11.2 48 6.5 SE 13 20 7 11 1019.9 1019.2 0.0
05/10:30am 21.4 19.1 11.7 54 5.5 SSE 15 22 8 12 1020.0 1019.3 0.0
05/10:00am 20.1 17.0 11.6 58 4.7 SSE 19 24 10 13 1020.0 1019.3 0.0
05/09:30am 18.8 15.1 11.6 63 4.0 SSE 22 30 12 16 1020.1 1019.4 0.0
05/09:00am 17.5 13.2 12.0 70 3.0 SSE 26 33 14 18 1020.0 1019.3 0.4
05/08:30am 16.2 12.3 12.0 76 2.3 SSE 24 32 13 17 1019.8 1019.1 0.4
05/08:00am 14.7 10.6 11.5 81 1.7 SSE 24 33 13 18 1019.6 1018.9 0.4
05/07:30am 13.7 9.5 11.2 85 1.3 SSE 24 32 13 17 1019.2 1018.5 0.4
05/07:00am 13.0 9.7 10.9 87 1.1 SSE 19 26 10 14 1019.1 1018.4 0.4
05/06:30am 12.9 9.3 10.6 86 1.2 SSE 20 28 11 15 1018.8 1018.1 0.4
05/06:00am 12.8 8.7 10.2 84 1.4 SSE 22 30 12 16 1018.6 1018.0 0.4
05/05:30am 12.7 7.8 9.9 83 1.4 SSE 26 35 14 19 1018.3 1017.7 0.4
05/05:00am 12.9 8.4 9.9 82 1.6 SSE 24 35 13 19 1018.3 1017.7 0.4
05/04:30am 13.0 7.7 10.0 82 1.6 SSE 28 37 15 20 1018.2 1017.6 0.4
05/04:00am 12.8 6.7 9.8 82 1.5 SSE 32 46 17 25 1017.9 1017.3 0.4
05/03:30am 12.9 7.7 10.1 83 1.5 SSE 28 39 15 21 1018.3 1017.7 0.4
05/03:00am 13.0 7.8 10.2 83 1.5 SSE 28 43 15 23 1018.4 1017.8 0.4
05/02:41am 13.0 6.8 10.2 83 1.5 SSE 33 52 18 28 1018.3 1017.7 0.4
05/02:30am 13.2 6.8 10.6 84 1.4 SSE 35 50 19 27 1018.4 1017.8 0.4
05/02:17am 13.3 7.3 10.7 84 1.4 SSE 33 54 18 29 1018.5 1017.9 0.4
05/02:00am 13.1 6.7 10.6 85 1.3 SSE 35 44 19 24 1018.6 1018.0 0.4
05/01:30am 13.1 7.2 10.6 85 1.3 SSE 32 43 17 23 1019.3 1018.6 0.4
05/01:00am 13.0 8.6 10.4 84 1.4 SSE 24 33 13 18 1019.8 1019.1 0.4
05/12:30am 13.3 8.1 10.3 82 1.6 SSE 28 43 15 23 1019.8 1019.1 0.4
05/12:00am 13.5 8.3 10.1 80 1.8 SSE 28 39 15 21 1019.9 1019.2 0.4

Other Formats:

Comma delimited format used in spreadsheet applications
http://www.bom.gov.au/fwo/IDV60801/IDV60801.95827.axf

JavaScript Object Notation format (JSON) in row-major order
http://www.bom.gov.au/fwo/IDV60801/IDV60801.95827.json